Time;durP1;ratioP1;P1;durP2;ratioP2;P2;SDS_P1;SDS_P2;PMS_P1;PMS_P2;Temp;Humidity;BMP_temperature;BMP_pressure;BME280_temperature;BME280_humidity;BME280_pressure;Samples;Min_cycle;Max_cycle;Signal;HPM_P1;HPM_P2
2023/01/26 00:01:26;;;;;;;11.05;6.30;;;;;;;9.34;46.82;101088.41;5095870;28;20040;-79
2023/01/26 00:04:21;;;;;;;12.02;6.30;;;;;;;9.22;47.33;101085.34;5095811;28;20049;-79
2023/01/26 00:07:15;;;;;;;23.93;7.97;;;;;;;9.33;48.05;101077.84;5108747;28;20046;-79
2023/01/26 00:10:10;;;;;;;13.18;7.00;;;;;;;9.36;48.60;101061.75;5098001;28;20513;-79
2023/01/26 00:13:04;;;;;;;10.20;6.13;;;;;;;9.36;48.53;101064.47;5095101;28;20043;-79
2023/01/26 00:15:59;;;;;;;10.97;5.43;;;;;;;9.13;47.97;101060.00;5084852;28;20047;-78
2023/01/26 00:18:53;;;;;;;12.73;6.40;;;;;;;9.16;48.51;101053.97;5114722;28;20051;-79
2023/01/26 00:21:48;;;;;;;18.52;8.88;;;;;;;9.43;49.05;101045.91;5105745;28;20043;-79
2023/01/26 00:24:43;;;;;;;15.73;7.63;;;;;;;9.56;49.63;101040.78;5106051;28;20054;-78
2023/01/26 00:27:37;;;;;;;25.83;11.75;;;;;;;9.87;49.40;101034.47;5083474;28;20047;-78
2023/01/26 00:30:29;;;;;;;16.83;7.32;;;;;;;9.59;47.35;101037.47;5104276;28;20047;-79
2023/01/26 00:33:24;;;;;;;23.48;7.43;;;;;;;9.42;48.00;101036.16;5102982;28;20046;-79
2023/01/26 00:36:18;;;;;;;11.80;6.32;;;;;;;9.37;47.96;101036.22;5090749;28;20039;-79
2023/01/26 00:39:10;;;;;;;25.42;6.07;;;;;;;9.40;48.00;101027.47;5083602;28;20047;-79
2023/01/26 00:42:08;;;;;;;16.55;8.18;;;;;;;9.43;47.79;101031.53;5081375;28;20047;-79
2023/01/26 00:45:03;;;;;;;20.73;8.77;;;;;;;9.18;48.26;101032.78;5084436;28;20055;-78
2023/01/26 00:47:57;;;;;;;18.63;8.10;;;;;;;9.22;48.23;101019.41;5094208;28;20054;-79
2023/01/26 00:50:51;;;;;;;21.23;9.95;;;;;;;9.15;48.83;101013.56;5094071;28;20050;-80
2023/01/26 00:53:45;;;;;;;13.68;7.55;;;;;;;9.07;48.78;101025.09;5113611;28;20065;-78
2023/01/26 00:56:40;;;;;;;17.33;7.95;;;;;;;9.09;49.21;101017.50;5113392;28;20047;-79
2023/01/26 00:59:34;;;;;;;10.32;5.93;;;;;;;9.03;48.95;101024.91;5104356;28;20066;-79
2023/01/26 01:02:29;;;;;;;8.15;4.82;;;;;;;8.88;48.88;101019.75;5114353;28;20047;-79
2023/01/26 01:05:23;;;;;;;8.15;5.47;;;;;;;8.86;48.40;101022.72;5099092;28;20046;-78
2023/01/26 01:08:18;;;;;;;15.43;7.72;;;;;;;8.90;49.14;101021.03;5100672;28;20046;-79
2023/01/26 01:11:16;;;;;;;13.10;6.17;;;;;;;8.92;48.18;101015.31;5113613;28;20517;-78
2023/01/26 01:14:10;;;;;;;16.27;7.43;;;;;;;8.86;48.80;101021.94;5104580;28;20043;-79
2023/01/26 01:17:05;;;;;;;11.60;4.85;;;;;;;8.56;48.78;101015.06;5113436;28;20047;-80
2023/01/26 01:20:00;;;;;;;12.57;6.68;;;;;;;8.52;49.01;101019.47;5098678;28;20529;-78
2023/01/26 01:22:54;;;;;;;12.50;5.40;;;;;;;8.42;49.46;101011.50;5110487;28;20058;-79
2023/01/26 01:25:58;;;;;;;16.07;6.57;;;;;;;8.37;50.03;101015.09;5108043;28;20042;-78
2023/01/26 01:28:54;;;;;;;21.23;8.88;;;;;;;8.39;50.05;101010.16;5100709;28;20050;-78
2023/01/26 01:31:46;;;;;;;15.85;7.35;;;;;;;8.39;49.59;101006.66;5101031;28;20046;-79
2023/01/26 01:34:41;;;;;;;21.77;6.78;;;;;;;8.43;49.76;101013.91;5113376;28;20055;-78
2023/01/26 01:37:35;;;;;;;18.67;9.25;;;;;;;8.42;49.73;101008.78;5093286;28;20040;-78
2023/01/26 01:40:30;;;;;;;21.33;7.30;;;;;;;8.49;50.01;101004.59;5092971;28;20047;-78
2023/01/26 01:43:24;;;;;;;26.83;7.40;;;;;;;8.40;50.43;100998.25;5093348;28;20509;-78
2023/01/26 01:46:32;;;;;;;21.63;7.65;;;;;;;8.40;50.56;100994.72;5088715;28;20070;-78
2023/01/26 01:49:45;;;;;;;14.50;6.20;;;;;;;8.33;49.87;100992.38;5102269;28;20051;-79
2023/01/26 01:52:39;;;;;;;14.07;7.57;;;;;;;8.45;49.89;100989.22;5106173;28;20062;-78
2023/01/26 01:55:31;;;;;;;18.58;5.90;;;;;;;8.43;50.14;100994.94;5107693;28;20117;-79
2023/01/26 01:58:26;;;;;;;23.63;10.00;;;;;;;8.39;50.57;100991.19;5109886;28;20054;-78
2023/01/26 02:01:18;;;;;;;17.52;6.82;;;;;;;8.59;49.69;100990.09;5103561;28;20063;-78
2023/01/26 02:04:13;;;;;;;10.52;5.90;;;;;;;8.58;49.47;100983.84;5117289;28;20043;-78
2023/01/26 02:07:03;;;;;;;19.77;7.63;;;;;;;8.64;49.18;100964.81;5110155;28;20043;-78
2023/01/26 02:13:10;;;;;;;19.42;7.20;;;;;;;8.59;48.54;100971.91;5104723;28;20050;-78
2023/01/26 02:16:07;;;;;;;17.70;6.53;;;;;;;8.52;48.46;100970.69;5103161;28;20097;-78
2023/01/26 02:19:01;;;;;;;13.63;7.10;;;;;;;8.41;48.94;100967.34;5101504;28;20042;-78
2023/01/26 02:22:01;;;;;;;16.58;7.55;;;;;;;8.31;49.26;100967.50;5103720;28;20054;-79
2023/01/26 02:24:56;;;;;;;24.05;8.20;;;;;;;8.29;49.29;100969.66;5105111;28;20533;-78
2023/01/26 02:27:51;;;;;;;15.67;6.03;;;;;;;8.27;49.63;100961.03;5104447;28;20395;-78
2023/01/26 02:30:45;;;;;;;14.63;7.00;;;;;;;8.13;49.30;100957.41;5101712;28;20043;-79
2023/01/26 02:33:40;;;;;;;13.05;5.68;;;;;;;8.17;49.14;100953.03;5104184;28;20074;-80
2023/01/26 02:36:35;;;;;;;13.68;5.60;;;;;;;8.25;49.17;100952.38;5093067;28;20541;-78
2023/01/26 02:39:47;;;;;;;12.27;5.32;;;;;;;8.49;48.93;100942.25;5116625;28;20043;-78
2023/01/26 02:42:42;;;;;;;20.35;7.43;;;;;;;8.47;48.93;100944.50;5103917;28;20530;-78
2023/01/26 02:45:39;;;;;;;15.02;7.13;;;;;;;8.57;48.93;100940.81;5085137;28;20063;-78
2023/01/26 02:51:44;;;;;;;23.95;8.48;;;;;;;8.31;49.21;100924.16;5080661;28;20035;-79
2023/01/26 02:58:05;;;;;;;15.32;6.20;;;;;;;8.09;49.25;100926.59;5016260;28;20057;-78
2023/01/26 03:00:59;;;;;;;19.67;7.57;;;;;;;8.05;49.37;100920.16;5111358;28;20047;-79
2023/01/26 03:03:54;;;;;;;17.75;7.70;;;;;;;8.05;49.79;100920.97;5101840;28;20414;-78
2023/01/26 03:06:49;;;;;;;19.00;9.73;;;;;;;7.96;49.43;100919.22;5104136;28;20528;-79
2023/01/26 03:09:43;;;;;;;19.93;8.27;;;;;;;7.97;50.32;100915.44;5102901;28;20276;-79
2023/01/26 03:12:38;;;;;;;17.48;7.50;;;;;;;8.04;49.69;100913.13;5100825;28;20422;-78
2023/01/26 03:15:46;;;;;;;18.77;8.30;;;;;;;8.07;50.08;100905.25;5098548;28;20043;-79
2023/01/26 03:28:16;;;;;;;14.88;7.63;;;;;;;8.32;49.53;100893.25;5097920;28;20603;-78
2023/01/26 03:31:10;;;;;;;15.60;6.05;;;;;;;8.40;49.08;100886.34;5101106;28;20071;-78
2023/01/26 03:34:05;;;;;;;23.38;8.68;;;;;;;8.61;49.17;100884.91;5115704;28;20046;-78
2023/01/26 03:36:59;;;;;;;15.43;6.73;;;;;;;8.53;48.68;100886.38;5091799;28;20415;-78
2023/01/26 03:59:07;;;;;;;14.27;5.88;;;;;;;8.53;48.32;100872.81;5094331;28;20058;-79
2023/01/26 04:08:30;;;;;;;12.40;5.75;;;;;;;8.43;48.71;100867.56;5083523;28;20043;-78
2023/01/26 04:11:25;;;;;;;10.65;5.15;;;;;;;8.38;48.33;100854.09;5091854;28;20034;-78
2023/01/26 04:23:55;;;;;;;19.23;7.13;;;;;;;8.57;48.53;100835.91;5083577;28;20043;-78
2023/01/26 04:26:49;;;;;;;7.47;3.92;;;;;;;8.47;47.98;100827.97;5091424;28;20557;-78
2023/01/26 04:29:46;;;;;;;10.80;5.82;;;;;;;8.46;47.99;100820.94;5098639;28;20050;-78
2023/01/26 04:32:41;;;;;;;13.30;5.40;;;;;;;8.36;48.06;100812.97;5117076;28;20039;-78
2023/01/26 04:35:33;;;;;;;25.45;8.40;;;;;;;8.21;48.71;100815.91;5113777;28;20058;-78
2023/01/26 04:38:28;;;;;;;19.98;7.15;;;;;;;8.25;48.57;100811.50;5114098;28;20532;-78
2023/01/26 04:41:23;;;;;;;12.85;6.03;;;;;;;8.30;48.05;100813.34;5092591;28;20518;-78
2023/01/26 04:44:24;;;;;;;19.17;8.65;;;;;;;8.30;48.64;100811.44;5078364;28;20043;-79
2023/01/26 04:47:17;;;;;;;18.83;6.63;;;;;;;8.33;48.15;100808.13;5081265;28;20047;-78
2023/01/26 04:50:13;;;;;;;22.42;7.18;;;;;;;8.26;48.84;100810.41;5094632;28;20034;-78
2023/01/26 04:53:05;;;;;;;;;;;;;;;8.21;48.71;100815.13;5103921;28;20043;-77
2023/01/26 04:56:00;;;;;;;15.55;7.40;;;;;;;8.25;48.72;100806.09;5100393;28;19912;-78
2023/01/26 04:58:55;;;;;;;15.02;5.82;;;;;;;8.32;48.70;100809.25;5093090;28;20047;-77
2023/01/26 05:01:47;;;;;;;10.95;5.13;;;;;;;8.33;48.16;100808.13;5106764;28;20043;-78
2023/01/26 05:04:41;;;;;;;12.75;5.57;;;;;;;8.28;48.26;100815.53;5112975;28;20046;-78
2023/01/26 05:07:33;;;;;;;18.90;7.95;;;;;;;8.29;48.65;100809.00;5115650;28;20051;-79
2023/01/26 05:10:28;;;;;;;22.65;8.15;;;;;;;8.25;48.60;100806.09;5100881;28;20148;-78
2023/01/26 05:13:40;;;;;;;15.27;6.75;;;;;;;8.29;48.53;100804.38;5119362;28;20070;-78
2023/01/26 05:16:58;;;;;;;17.13;6.35;;;;;;;8.26;48.49;100807.69;5099323;28;20055;-78
2023/01/26 05:20:10;;;;;;;12.02;6.50;;;;;;;8.23;48.49;100813.69;5116717;28;20063;-78
2023/01/26 05:23:19;;;;;;;12.27;6.25;;;;;;;8.35;48.33;100811.38;5099726;28;20046;-78
2023/01/26 05:26:30;;;;;;;22.60;8.25;;;;;;;8.20;48.54;100808.88;5103139;28;20047;-78
2023/01/26 05:29:29;;;;;;;16.90;5.95;;;;;;;8.11;49.16;100807.97;5102579;28;20038;-78
2023/01/26 05:32:21;;;;;;;21.13;7.40;;;;;;;8.01;49.13;100805.41;5082912;28;20395;-79
2023/01/26 05:35:16;;;;;;;22.27;9.52;;;;;;;7.91;49.43;100805.59;5080570;28;20047;-78
2023/01/26 05:38:10;;;;;;;22.93;9.47;;;;;;;7.95;49.29;100807.41;5089588;27;20496;-78
2023/01/26 05:41:05;;;;;;;21.40;8.03;;;;;;;7.84;49.49;100805.13;5100128;28;20063;-77
2023/01/26 05:44:06;;;;;;;23.30;8.52;;;;;;;7.94;49.37;100810.41;5086576;28;20046;-77
2023/01/26 05:47:06;;;;;;;17.95;7.40;;;;;;;8.06;48.92;100814.28;5089807;28;20046;-78
2023/01/26 05:50:01;;;;;;;18.47;7.37;;;;;;;8.01;49.10;100808.13;5093974;28;20051;-77
2023/01/26 05:52:56;;;;;;;20.45;7.28;;;;;;;7.98;49.46;100806.00;5084303;28;20039;-78
2023/01/26 05:55:46;;;;;;;12.55;5.80;;;;;;;8.00;49.13;100803.81;5087430;28;20063;-78
2023/01/26 05:58:43;;;;;;;17.40;7.07;;;;;;;8.04;48.83;100807.53;5084081;28;20044;-77
2023/01/26 06:01:38;;;;;;;10.17;5.37;;;;;;;8.14;48.37;100810.06;5103892;28;20687;-77
2023/01/26 06:04:30;;;;;;;20.75;9.88;;;;;;;8.12;49.37;100810.38;5100541;28;20042;-77
2023/01/26 06:07:25;;;;;;;17.08;7.43;;;;;;;7.98;49.09;100812.22;5094204;28;20047;-77
2023/01/26 06:10:40;;;;;;;13.82;5.38;;;;;;;7.93;49.44;100801.47;5100384;28;20051;-77
2023/01/26 06:13:48;;;;;;;14.45;6.65;;;;;;;7.88;49.34;100822.41;5085267;28;20058;-77
2023/01/26 06:16:49;;;;;;;19.98;7.85;;;;;;;7.90;49.14;100810.19;5090826;28;20050;-77
2023/01/26 06:19:43;;;;;;;14.73;7.80;;;;;;;8.02;49.08;100815.16;5087374;28;20043;-77
2023/01/26 06:22:38;;;;;;;15.02;7.38;;;;;;;8.04;48.86;100813.75;5083817;28;20039;-78
2023/01/26 06:25:33;;;;;;;16.20;7.47;;;;;;;8.12;49.04;100809.56;5092869;28;21460;-77
2023/01/26 06:28:25;;;;;;;13.87;6.97;;;;;;;8.21;48.04;100805.09;5093853;28;20051;-77
2023/01/26 06:31:19;;;;;;;12.05;5.82;;;;;;;8.10;48.47;100800.94;5090344;28;20281;-77
2023/01/26 06:34:14;;;;;;;12.50;6.63;;;;;;;8.07;48.40;100804.25;5087950;28;20044;-77
2023/01/26 06:37:06;;;;;;;12.70;5.95;;;;;;;8.12;47.89;100801.44;5104963;28;20051;-77
2023/01/26 06:40:01;;;;;;;8.45;4.80;;;;;;;8.03;48.00;100789.66;5105432;28;20043;-77
2023/01/26 06:42:56;;;;;;;10.82;4.38;;;;;;;7.95;48.32;100784.94;5095657;28;20051;-78
2023/01/26 06:45:49;;;;;;;;;;;;;;;8.11;47.92;100778.16;5095125;28;20414;-77
2023/01/26 06:48:45;;;;;;;12.05;4.85;;;;;;;7.96;48.16;100786.56;5088559;28;19911;-77
2023/01/26 06:51:54;;;;;;;;;;;;;;;7.86;48.63;100786.72;5095413;28;20058;-77
2023/01/26 06:54:51;;;;;;;9.90;5.30;;;;;;;7.87;48.32;100782.91;5090347;28;20390;-77
2023/01/26 06:58:10;;;;;;;15.00;7.07;;;;;;;7.94;48.10;100780.63;5090951;28;20043;-77
2023/01/26 07:01:38;;;;;;;;;;;;;;;7.92;48.15;100783.63;5101359;28;20048;-77
2023/01/26 07:04:33;;;;;;;14.38;5.70;;;;;;;7.84;48.75;100778.06;5112611;28;20283;-78
2023/01/26 07:07:27;;;;;;;9.60;5.28;;;;;;;7.84;48.41;100775.38;5114684;28;20050;-77
2023/01/26 07:10:22;;;;;;;8.97;5.17;;;;;;;7.91;48.13;100781.22;5093410;28;20055;-77
2023/01/26 07:13:17;;;;;;;8.85;4.70;;;;;;;7.89;48.38;100778.00;5111087;28;20034;-77
2023/01/26 07:16:13;;;;;;;10.13;4.88;;;;;;;7.88;48.35;100784.50;5102913;28;20043;-77
2023/01/26 07:19:07;;;;;;;8.60;5.00;;;;;;;7.95;48.05;100779.53;5110078;28;20039;-77
2023/01/26 07:22:02;;;;;;;11.67;5.67;;;;;;;8.01;47.91;100778.34;5107658;28;20054;-77
2023/01/26 07:24:56;;;;;;;12.90;6.57;;;;;;;7.92;48.13;100774.72;5114588;28;20054;-77
2023/01/26 07:27:56;;;;;;;8.00;5.20;;;;;;;8.03;47.66;100784.25;5114379;28;20039;-76
2023/01/26 07:30:50;;;;;;;13.20;6.70;;;;;;;7.93;47.81;100787.13;5107659;28;20528;-77
2023/01/26 07:33:45;;;;;;;12.27;5.00;;;;;;;7.87;47.93;100785.63;5113359;28;20047;-77
2023/01/26 07:36:39;;;;;;;7.57;4.15;;;;;;;7.77;47.88;100788.50;5108621;28;20043;-76
2023/01/26 07:39:34;;;;;;;10.82;5.22;;;;;;;7.77;48.46;100785.78;5102856;28;20039;-76
2023/01/26 07:42:28;;;;;;;10.05;5.18;;;;;;;7.76;48.40;100789.59;5092217;28;20059;-76
2023/01/26 07:45:27;;;;;;;10.50;5.70;;;;;;;7.84;48.37;100786.19;5105053;28;20051;-76
2023/01/26 07:48:21;;;;;;;15.07;6.65;;;;;;;7.87;49.43;100782.91;5109553;28;20406;-77
2023/01/26 07:51:15;;;;;;;17.52;7.03;;;;;;;7.98;50.65;100795.16;5106468;28;20042;-77
2023/01/26 07:54:11;;;;;;;23.85;8.00;;;;;;;7.93;50.22;100787.94;5103746;28;20043;-76
2023/01/26 07:57:03;;;;;;;;;;;;;;;7.93;48.48;100784.41;5110011;28;20109;-76
2023/01/26 07:59:55;;;;;;;16.65;6.30;;;;;;;7.88;48.90;100779.09;5105871;28;19911;-76
2023/01/26 08:02:53;;;;;;;12.05;6.07;;;;;;;7.83;48.60;100771.03;5113686;28;20046;-76
2023/01/26 08:05:47;;;;;;;7.88;4.93;;;;;;;7.87;48.56;100772.09;5109377;28;20054;-76
2023/01/26 08:08:43;;;;;;;14.13;6.25;;;;;;;7.88;48.55;100774.47;5105580;28;20055;-76
2023/01/26 08:11:37;;;;;;;11.25;6.13;;;;;;;7.88;48.52;100774.47;5099603;28;20062;-76
2023/01/26 08:14:32;;;;;;;15.40;5.55;;;;;;;7.88;48.38;100777.19;5110755;28;20043;-76
2023/01/26 08:17:26;;;;;;;10.35;6.28;;;;;;;7.81;47.85;100774.06;5121603;27;20043;-75
2023/01/26 08:20:21;;;;;;;9.73;5.47;;;;;;;7.87;47.62;100767.47;5102884;28;20047;-76
2023/01/26 08:23:13;;;;;;;9.95;4.75;;;;;;;7.92;47.36;100774.72;5108343;28;20039;-76
2023/01/26 08:26:07;;;;;;;12.32;6.03;;;;;;;8.00;47.84;100784.84;5108666;28;20042;-77
2023/01/26 08:28:57;;;;;;;13.73;5.82;;;;;;;8.05;47.93;100776.66;5107950;28;20422;-76
2023/01/26 08:31:52;;;;;;;9.95;5.65;;;;;;;8.07;47.39;100769.84;5093058;28;20035;-77
2023/01/26 08:34:44;;;;;;;11.55;6.07;;;;;;;8.06;47.14;100775.56;5091112;28;20051;-77
2023/01/26 08:37:39;;;;;;;11.98;6.05;;;;;;;8.12;48.43;100777.06;5104187;28;20043;-77
2023/01/26 08:40:30;;;;;;;12.02;6.43;;;;;;;8.15;47.67;100779.97;5095136;28;20051;-77
2023/01/26 08:43:25;;;;;;;9.38;6.10;;;;;;;8.28;47.20;100778.41;5098625;28;20043;-75
2023/01/26 08:46:19;;;;;;;14.82;7.03;;;;;;;8.27;47.79;100787.66;5107197;28;20537;-76
2023/01/26 08:49:14;;;;;;;12.67;5.90;;;;;;;8.34;47.23;100785.38;5103204;28;20038;-77
2023/01/26 08:52:07;;;;;;;;;;;;;;;8.38;47.00;100788.31;5089265;28;20059;-77
2023/01/26 08:55:02;;;;;;;11.05;5.90;;;;;;;8.37;47.16;100792.09;5088567;28;20387;-76
2023/01/26 08:57:59;;;;;;;16.88;7.57;;;;;;;8.45;47.10;100794.13;5085876;28;20410;-77
2023/01/26 09:00:54;;;;;;;15.35;7.57;;;;;;;8.44;47.26;100793.31;5095994;28;20035;-76
2023/01/26 09:03:49;;;;;;;14.25;7.00;;;;;;;8.49;47.44;100784.28;5101309;28;20415;-76
2023/01/26 09:06:41;;;;;;;10.40;6.22;;;;;;;8.48;47.23;100786.19;5101215;28;20059;-77
2023/01/26 09:09:33;;;;;;;16.55;7.10;;;;;;;8.48;47.11;100788.13;5112608;28;20050;-77
2023/01/26 09:12:27;;;;;;;11.88;5.50;;;;;;;8.42;47.46;100787.41;5096190;28;20043;-77
2023/01/26 09:15:22;;;;;;;13.32;6.95;;;;;;;8.42;47.34;100795.53;5108424;28;20062;-77
2023/01/26 09:18:16;;;;;;;13.80;7.30;;;;;;;8.40;46.86;100796.91;5093665;28;20051;-76
2023/01/26 09:21:11;;;;;;;11.20;6.72;;;;;;;8.44;46.49;100801.44;5084278;28;20059;-77
2023/01/26 09:24:05;;;;;;;16.33;7.20;;;;;;;8.40;46.44;100792.31;5104693;28;20047;-77
2023/01/26 09:26:57;;;;;;;12.00;6.35;;;;;;;8.45;46.62;100794.91;5108797;28;20046;-77
2023/01/26 09:29:52;;;;;;;11.30;6.55;;;;;;;8.48;46.61;100797.03;5107578;28;20039;-77
2023/01/26 09:32:44;;;;;;;10.75;6.47;;;;;;;8.50;46.81;100794.03;5093434;28;20039;-76
2023/01/26 09:35:34;;;;;;;13.27;7.53;;;;;;;8.48;46.99;100797.03;5112101;28;20046;-76
2023/01/26 09:38:29;;;;;;;13.00;6.80;;;;;;;8.55;46.74;100800.16;5098586;28;20046;-76
2023/01/26 09:41:50;;;;;;;11.07;5.47;;;;;;;8.57;46.94;100803.38;5105914;28;20047;-77
2023/01/26 09:44:49;;;;;;;15.35;7.22;;;;;;;8.54;48.54;100801.25;5104066;28;20050;-77
2023/01/26 09:48:10;;;;;;;16.23;6.68;;;;;;;8.72;47.91;100790.63;5113254;28;20042;-77
2023/01/26 09:51:11;;;;;;;26.63;9.55;;;;;;;8.82;50.10;100790.44;5113018;28;20038;-77
2023/01/26 09:54:14;;;;;;;18.30;10.52;;;;;;;8.85;51.01;100787.13;5111198;28;20043;-77
2023/01/26 09:57:16;;;;;;;16.15;8.68;;;;;;;8.99;51.17;100794.13;5113985;28;20063;-77
2023/01/26 10:00:31;;;;;;;13.52;7.88;;;;;;;8.98;49.31;100784.41;5117329;28;20047;-77
2023/01/26 10:03:46;;;;;;;13.25;6.85;;;;;;;8.93;49.90;100784.53;5099535;28;20047;-76
2023/01/26 10:06:44;;;;;;;13.85;7.72;;;;;;;9.05;48.39;100780.47;5103255;28;20047;-77
2023/01/26 10:09:48;;;;;;;16.35;8.90;;;;;;;9.24;47.86;100781.97;5115916;28;20058;-76
2023/01/26 10:12:40;;;;;;;21.27;8.80;;;;;;;9.35;48.69;100774.38;5114838;28;20050;-76
2023/01/26 10:15:42;;;;;;;16.13;7.85;;;;;;;9.33;48.36;100771.19;5112373;28;20050;-76
2023/01/26 10:18:42;;;;;;;19.13;9.65;;;;;;;9.32;50.13;100775.00;5109977;28;20039;-77
2023/01/26 10:21:38;;;;;;;17.00;9.10;;;;;;;9.20;48.47;100763.88;5098708;28;20529;-77
2023/01/26 10:24:34;;;;;;;14.80;9.27;;;;;;;9.31;46.76;100757.13;5115921;28;20047;-77
2023/01/26 10:27:26;;;;;;;16.00;9.55;;;;;;;9.40;49.40;100755.28;5099863;28;20410;-76
2023/01/26 10:30:19;;;;;;;14.35;8.30;;;;;;;9.24;47.68;100757.56;5114030;28;20054;-77
2023/01/26 10:33:32;;;;;;;13.75;8.27;;;;;;;9.43;48.03;100750.06;5098376;28;20529;-77
2023/01/26 10:36:26;;;;;;;17.90;8.30;;;;;;;9.29;46.54;100741.16;5093784;28;20047;-77
2023/01/26 10:39:16;;;;;;;17.15;7.25;;;;;;;9.40;46.66;100742.50;5105215;28;20047;-76
2023/01/26 10:42:19;;;;;;;16.95;9.48;;;;;;;9.44;47.52;100740.81;5090165;28;20398;-80
2023/01/26 10:45:34;;;;;;;15.45;8.80;;;;;;;9.43;47.02;100732.97;5116367;28;20414;-77
2023/01/26 10:48:29;;;;;;;12.38;8.60;;;;;;;9.28;45.78;100730.59;5113666;28;20051;-77
2023/01/26 10:51:23;;;;;;;13.13;8.13;;;;;;;9.38;46.46;100731.19;5104810;28;20038;-77
2023/01/26 10:54:29;;;;;;;14.82;7.00;;;;;;;9.44;47.40;100723.72;5111433;28;20039;-77
2023/01/26 10:57:31;;;;;;;12.82;8.05;;;;;;;9.32;47.28;100716.13;5119742;28;20046;-77
2023/01/26 11:00:35;;;;;;;14.75;8.40;;;;;;;9.36;46.88;100719.81;5126497;28;20433;-77
2023/01/26 11:03:28;;;;;;;15.90;9.68;;;;;;;9.38;49.39;100709.47;5095612;28;20043;-78
2023/01/26 11:06:20;;;;;;;16.20;8.80;;;;;;;9.39;47.47;100705.66;5111788;28;20054;-77
2023/01/26 11:09:21;;;;;;;14.88;7.45;;;;;;;9.48;48.43;100707.63;5119897;28;20050;-78
2023/01/26 11:12:21;;;;;;;13.80;8.05;;;;;;;9.41;47.61;100703.41;5130254;28;20065;-77
2023/01/26 11:15:21;;;;;;;14.52;7.95;;;;;;;9.42;47.77;100690.66;5114469;28;20046;-78
2023/01/26 11:18:29;;;;;;;14.63;8.02;;;;;;;9.40;48.14;100695.56;5117811;28;20042;-78
2023/01/26 11:21:50;;;;;;;12.43;8.32;;;;;;;9.57;47.92;100681.34;5126421;28;20047;-78
2023/01/26 11:25:12;;;;;;;17.20;9.05;;;;;;;9.42;47.07;100669.75;5120721;28;20059;-78
2023/01/26 11:28:20;;;;;;;15.27;8.43;;;;;;;9.50;47.41;100670.91;5117061;28;20039;-78
2023/01/26 11:31:33;;;;;;;18.65;8.73;;;;;;;9.38;48.82;100666.03;5115636;28;20037;-77
2023/01/26 11:34:39;;;;;;;18.35;8.65;;;;;;;9.43;48.73;100659.69;5104637;28;20043;-78
2023/01/26 11:37:40;;;;;;;16.48;8.07;;;;;;;9.51;48.86;100658.13;5113512;28;20051;-78
2023/01/26 11:40:59;;;;;;;13.68;7.45;;;;;;;9.50;47.41;100651.13;5122076;28;20030;-79
2023/01/26 11:44:33;;;;;;;13.15;8.95;;;;;;;9.51;47.69;100647.28;5111618;28;20513;-77
2023/01/26 11:48:01;;;;;;;13.30;7.93;;;;;;;9.59;45.86;100636.50;5094104;28;20548;-77
2023/01/26 11:51:10;;;;;;;14.38;8.52;;;;;;;9.64;47.91;100630.94;5116810;28;20051;-77
2023/01/26 11:54:33;;;;;;;15.85;8.65;;;;;;;9.60;45.74;100627.22;5119575;28;20035;-76
2023/01/26 11:57:41;;;;;;;14.13;7.85;;;;;;;9.62;46.90;100621.47;5112141;28;20537;-77
2023/01/26 12:00:47;;;;;;;17.63;8.35;;;;;;;9.68;46.71;100617.53;5107199;28;20043;-77
2023/01/26 12:03:44;;;;;;;11.40;6.38;;;;;;;9.60;44.79;100607.44;5110669;28;20053;-78
2023/01/26 12:06:45;;;;;;;14.40;8.10;;;;;;;9.62;44.72;100602.47;5116459;28;20047;-78
2023/01/26 12:09:55;;;;;;;14.48;9.10;;;;;;;9.61;44.90;100596.25;5122909;28;20047;-78
2023/01/26 12:12:52;;;;;;;12.15;7.13;;;;;;;9.60;45.62;100591.91;5129798;28;20417;-77
2023/01/26 12:15:53;;;;;;;12.77;7.82;;;;;;;9.53;43.18;100579.91;5114121;28;20046;-78
2023/01/26 12:18:54;;;;;;;12.13;7.75;;;;;;;9.56;43.70;100577.38;5126592;28;20046;-78
2023/01/26 12:21:55;;;;;;;13.13;8.10;;;;;;;9.64;45.15;100578.53;5108005;28;20414;-78
2023/01/26 12:25:23;;;;;;;11.60;7.68;;;;;;;9.63;44.86;100574.22;5108952;28;20042;-78
2023/01/26 12:28:35;;;;;;;15.43;7.82;;;;;;;9.87;43.65;100563.78;5111909;28;20047;-77
2023/01/26 12:31:35;;;;;;;12.68;8.07;;;;;;;10.63;42.75;100558.84;5103282;28;20043;-79
2023/01/26 12:34:31;;;;;;;14.55;7.78;;;;;;;9.92;44.91;100560.91;5115822;28;20047;-78
2023/01/26 12:37:46;;;;;;;11.48;7.13;;;;;;;9.55;44.01;100556.75;5110837;28;20042;-78
2023/01/26 12:40:52;;;;;;;13.48;8.65;;;;;;;10.34;43.41;100547.78;5113087;28;20418;-79
2023/01/26 12:44:06;;;;;;;12.40;6.80;;;;;;;10.33;43.71;100543.47;5116932;28;20047;-79
2023/01/26 12:47:10;;;;;;;16.05;8.30;;;;;;;10.79;42.96;100540.94;5107667;28;20434;-79
2023/01/26 12:50:31;;;;;;;16.25;8.85;;;;;;;10.54;43.92;100537.09;5113171;28;20043;-79
2023/01/26 12:53:35;;;;;;;14.23;8.27;;;;;;;10.37;42.76;100534.34;5123890;28;20058;-79
2023/01/26 12:56:32;;;;;;;12.98;8.00;;;;;;;10.77;42.08;100521.41;5101332;28;20039;-75
2023/01/26 12:59:33;;;;;;;16.13;10.55;;;;;;;11.00;41.55;100525.56;5101298;28;20066;-75
2023/01/26 13:02:34;;;;;;;16.35;8.93;;;;;;;10.93;41.15;100524.44;5102707;28;20032;-76
2023/01/26 13:05:35;;;;;;;22.83;19.05;;;;;;;10.85;41.86;100525.25;5096018;28;20046;-77
2023/01/26 13:08:41;;;;;;;12.60;8.00;;;;;;;10.67;41.39;100513.59;5112007;28;20047;-75
2023/01/26 13:12:00;;;;;;;16.75;9.27;;;;;;;10.57;41.76;100511.19;5105250;28;20051;-75
2023/01/26 13:15:08;;;;;;;17.88;9.63;;;;;;;10.24;43.16;100514.38;5098312;28;20035;-77
2023/01/26 13:18:06;;;;;;;15.75;9.68;;;;;;;10.31;43.26;100511.16;5111784;28;20062;-76
2023/01/26 13:20:59;;;;;;;21.98;8.25;;;;;;;10.40;42.66;100500.31;5090404;28;20153;-75
2023/01/26 13:23:51;;;;;;;18.75;9.45;;;;;;;10.34;43.82;100501.59;5100763;28;20042;-75
2023/01/26 13:26:50;;;;;;;16.05;8.82;;;;;;;10.13;43.58;100502.19;5102964;28;20418;-76
2023/01/26 13:29:58;;;;;;;13.13;8.50;;;;;;;9.93;44.21;100494.63;5126245;28;20047;-78
2023/01/26 13:33:02;;;;;;;16.80;10.20;;;;;;;9.92;43.97;100493.00;5114411;28;20034;-79
2023/01/26 13:35:57;;;;;;;18.73;9.73;;;;;;;10.13;44.41;100494.03;5129278;28;20046;-79
2023/01/26 13:39:01;;;;;;;25.05;9.68;;;;;;;10.14;44.63;100487.47;5128389;28;20045;-78
2023/01/26 13:41:54;;;;;;;18.83;9.13;;;;;;;10.15;44.72;100489.09;5121512;28;20052;-78
2023/01/26 13:44:52;;;;;;;13.75;8.63;;;;;;;10.05;45.45;100488.59;5109581;28;20055;-78
2023/01/26 13:47:54;;;;;;;18.23;9.40;;;;;;;10.23;44.96;100488.31;5100773;28;20047;-78
2023/01/26 13:50:51;;;;;;;14.70;8.55;;;;;;;10.05;44.69;100483.16;5125874;28;20043;-78
2023/01/26 13:54:16;;;;;;;16.33;8.73;;;;;;;9.87;46.36;100480.38;5113081;28;20081;-79
2023/01/26 13:57:11;;;;;;;16.98;9.13;;;;;;;9.73;47.65;100487.06;5119979;28;20043;-78
2023/01/26 14:00:06;;;;;;;16.10;9.30;;;;;;;9.79;47.14;100485.81;5093816;28;20132;-78
2023/01/26 14:02:58;;;;;;;16.58;8.98;;;;;;;9.83;46.64;100489.47;5107597;28;20394;-78
2023/01/26 14:06:18;;;;;;;15.77;9.37;;;;;;;9.85;46.77;100487.28;5119532;28;20497;-78
2023/01/26 14:09:15;;;;;;;18.50;8.93;;;;;;;9.79;47.32;100491.25;5119273;28;20506;-78
2023/01/26 14:12:07;;;;;;;16.20;9.88;;;;;;;9.77;47.11;100486.13;5115286;28;20046;-80
2023/01/26 14:15:03;;;;;;;17.63;9.80;;;;;;;9.74;47.61;100483.25;5106609;28;20047;-78
2023/01/26 14:17:59;;;;;;;17.63;9.00;;;;;;;9.62;48.36;100488.47;5121712;28;20082;-78
2023/01/26 14:20:51;;;;;;;12.35;6.38;;;;;;;9.64;48.67;100492.47;5108080;28;20047;-78
2023/01/26 14:23:45;;;;;;;18.58;10.07;;;;;;;9.55;49.46;100474.56;5112719;28;20047;-78
2023/01/26 14:26:41;;;;;;;20.13;11.30;;;;;;;9.38;50.02;100481.50;5109417;28;20050;-78
2023/01/26 14:29:40;;;;;;;17.15;9.73;;;;;;;9.47;49.47;100480.72;5109245;28;20425;-78
2023/01/26 14:32:33;;;;;;;16.17;9.80;;;;;;;9.47;49.29;100486.97;5119910;28;20050;-78
2023/01/26 14:35:27;;;;;;;23.02;10.30;;;;;;;9.29;49.42;100477.97;5121812;28;20055;-77
2023/01/26 14:38:22;;;;;;;20.80;10.77;;;;;;;9.38;49.51;100480.72;5106835;28;20039;-78
2023/01/26 14:41:22;;;;;;;17.67;9.57;;;;;;;9.42;49.10;100482.47;5106264;28;20414;-77
2023/01/26 14:44:15;;;;;;;21.92;9.10;;;;;;;9.27;49.66;100485.59;5111939;28;20047;-78
2023/01/26 14:47:16;;;;;;;21.45;10.60;;;;;;;9.26;50.01;100472.34;5087798;28;20051;-78